createdAt,value
2022-09-26T00:00:13.422Z,3.13
2022-09-26T00:02:40.238Z,2.73
2022-09-26T00:05:08.355Z,2.70
2022-09-26T00:07:35.083Z,3.27
2022-09-26T00:10:03.379Z,3.37
2022-09-26T00:12:30.059Z,2.37
2022-09-26T00:14:57.004Z,2.93
2022-09-26T00:17:23.702Z,2.70
2022-09-26T00:19:50.485Z,2.80
2022-09-26T00:22:17.163Z,2.17
2022-09-26T00:24:43.872Z,3.00
2022-09-26T00:27:12.000Z,3.57
2022-09-26T00:29:39.000Z,3.60
2022-09-26T00:32:05.774Z,2.97
2022-09-26T00:34:32.499Z,2.77
2022-09-26T00:36:59.287Z,2.63
2022-09-26T00:39:25.985Z,3.20
2022-09-26T00:41:52.789Z,3.00
2022-09-26T00:44:42.664Z,3.80
2022-09-26T00:47:21.212Z,4.07
2022-09-26T00:49:51.114Z,3.30
2022-09-26T00:52:22.709Z,4.40
2022-09-26T00:54:54.114Z,4.50
2022-09-26T00:57:32.811Z,3.60
2022-09-26T01:00:04.908Z,4.43
2022-09-26T01:02:31.833Z,4.50
2022-09-26T01:04:59.468Z,3.60
2022-09-26T01:07:28.182Z,4.43
2022-09-26T01:09:56.115Z,3.67
2022-09-26T01:12:23.364Z,5.03
2022-09-26T01:14:53.761Z,3.97
2022-09-26T01:17:23.191Z,4.30
2022-09-26T01:20:06.135Z,3.63
2022-09-26T01:23:07.374Z,3.27
2022-09-26T01:26:05.638Z,4.70
2022-09-26T01:28:49.318Z,4.30
2022-09-26T01:31:26.806Z,4.60
2022-09-26T01:34:00.067Z,3.50
2022-09-26T01:36:54.165Z,4.80
2022-09-26T01:39:31.324Z,5.13
2022-09-26T01:42:05.242Z,3.37
2022-09-26T01:44:39.149Z,4.00
2022-09-26T01:47:13.302Z,4.63
2022-09-26T01:49:48.804Z,4.40
2022-09-26T01:52:20.142Z,3.70
2022-09-26T01:54:53.486Z,3.40
2022-09-26T01:57:27.154Z,4.53
2022-09-26T01:59:59.124Z,4.60
2022-09-26T02:02:31.477Z,4.40
2022-09-26T02:05:04.720Z,3.60
2022-09-26T02:07:36.963Z,4.30
2022-09-26T02:10:09.545Z,3.93
2022-09-26T02:12:41.025Z,4.77
2022-09-26T02:15:11.109Z,3.90
2022-09-26T02:17:43.981Z,4.40
2022-09-26T02:20:15.166Z,4.10
2022-09-26T02:22:42.705Z,3.57
2022-09-26T02:25:10.463Z,3.43
2022-09-26T02:27:37.279Z,3.67
2022-09-26T02:30:04.903Z,3.40
2022-09-26T02:32:33.336Z,3.17
2022-09-26T02:35:02.364Z,3.00
2022-09-26T02:37:29.209Z,3.60
2022-09-26T02:39:56.715Z,2.90
2022-09-26T02:42:28.979Z,3.83
2022-09-26T02:45:20.601Z,3.93
2022-09-26T02:48:07.976Z,3.50
2022-09-26T02:50:57.428Z,3.50
2022-09-26T02:53:42.850Z,3.57
2022-09-26T02:56:16.174Z,4.00
2022-09-26T02:58:53.431Z,4.10
2022-09-26T03:01:30.266Z,4.57
2022-09-26T03:04:02.527Z,4.17
2022-09-26T03:06:36.005Z,3.63
2022-09-26T03:09:04.565Z,5.33
2022-09-26T03:11:33.548Z,3.70
2022-09-26T03:14:01.604Z,4.33
2022-09-26T03:16:33.961Z,4.30
2022-09-26T03:19:04.931Z,3.63
2022-09-26T03:21:37.001Z,3.00
2022-09-26T03:24:04.346Z,4.70
2022-09-26T03:26:32.719Z,3.33
2022-09-26T03:28:59.603Z,2.77
2022-09-26T03:31:26.497Z,3.50
2022-09-26T03:33:53.340Z,3.43
2022-09-26T03:36:22.689Z,3.73
2022-09-26T03:38:51.189Z,4.10
2022-09-26T03:41:17.902Z,2.90
2022-09-26T03:43:44.708Z,2.97
2022-09-26T03:46:12.410Z,2.87
2022-09-26T03:48:39.581Z,2.40
2022-09-26T03:51:08.294Z,4.00
2022-09-26T03:53:36.698Z,3.67
2022-09-26T03:56:06.153Z,3.20
2022-09-26T03:58:32.994Z,2.40
2022-09-26T04:01:03.693Z,3.60
2022-09-26T04:03:33.126Z,3.20
2022-09-26T04:05:59.918Z,3.33
2022-09-26T04:08:26.817Z,3.20
2022-09-26T04:10:53.651Z,3.43
2022-09-26T04:13:49.431Z,2.20
2022-09-26T04:16:08.906Z,2.50
2022-09-26T04:18:36.451Z,3.13
2022-09-26T04:21:09.763Z,2.93
2022-09-26T04:23:38.696Z,2.30
2022-09-26T04:26:07.078Z,2.70
2022-09-26T04:28:35.806Z,2.70
2022-09-26T04:31:05.192Z,2.60
2022-09-26T04:33:32.492Z,2.80
2022-09-26T04:36:00.603Z,3.37
2022-09-26T04:38:27.515Z,2.73
2022-09-26T04:40:54.429Z,2.90
2022-09-26T04:43:21.271Z,2.30
2022-09-26T04:45:49.390Z,2.80
2022-09-26T04:48:16.180Z,2.63
2022-09-26T04:50:42.980Z,2.63
2022-09-26T04:53:09.779Z,2.20
2022-09-26T04:55:36.568Z,3.20
2022-09-26T04:58:03.408Z,2.20
2022-09-26T05:00:30.222Z,2.67
2022-09-26T05:02:58.348Z,3.13
2022-09-26T05:05:25.242Z,2.57
2022-09-26T05:07:52.001Z,2.93
2022-09-26T05:10:18.786Z,2.77
2022-09-26T05:12:45.570Z,3.10
2022-09-26T05:15:46.006Z,2.63
2022-09-26T05:18:14.171Z,3.03
2022-09-26T05:20:45.280Z,2.60
2022-09-26T05:23:12.075Z,3.23
2022-09-26T05:25:40.618Z,2.40
2022-09-26T05:28:07.447Z,2.77
2022-09-26T05:30:35.154Z,2.70
2022-09-26T05:33:02.284Z,3.00
2022-09-26T05:35:30.364Z,2.27
2022-09-26T05:37:58.837Z,1.80
2022-09-26T05:40:25.784Z,2.60
2022-09-26T05:42:52.646Z,2.20
2022-09-26T05:45:19.412Z,1.93
2022-09-26T05:47:46.270Z,2.70
2022-09-26T05:50:13.078Z,2.10
2022-09-26T05:52:41.237Z,2.27
2022-09-26T05:55:08.460Z,2.33
2022-09-26T05:57:35.216Z,2.60
2022-09-26T06:00:02.034Z,2.10
2022-09-26T06:02:28.837Z,1.90
2022-09-26T06:04:55.671Z,1.87
2022-09-26T06:07:22.444Z,2.70
2022-09-26T06:09:55.774Z,2.40
2022-09-26T06:12:22.593Z,2.27
2022-09-26T06:14:49.401Z,2.13
2022-09-26T06:17:16.177Z,2.50
2022-09-26T06:19:42.878Z,2.47
2022-09-26T06:22:09.720Z,2.30
2022-09-26T06:24:36.518Z,2.13
2022-09-26T06:27:04.841Z,2.30
2022-09-26T06:29:31.618Z,2.03
2022-09-26T06:31:58.558Z,1.60
2022-09-26T06:34:25.332Z,1.67
2022-09-26T06:36:52.188Z,1.43
2022-09-26T06:39:18.988Z,1.40
2022-09-26T06:41:45.779Z,1.90
2022-09-26T06:44:14.081Z,2.13
2022-09-26T06:46:40.899Z,2.10
2022-09-26T06:49:07.790Z,2.40
2022-09-26T06:51:34.577Z,2.00
2022-09-26T06:54:01.333Z,2.10
2022-09-26T06:56:28.144Z,2.00
2022-09-26T06:58:57.662Z,2.17
2022-09-26T07:01:26.057Z,2.93
2022-09-26T07:03:54.379Z,2.27
2022-09-26T07:06:21.389Z,1.60
2022-09-26T07:09:02.355Z,1.90
2022-09-26T07:11:41.975Z,1.67
2022-09-26T07:14:17.664Z,2.57
2022-09-26T07:16:47.950Z,2.20
2022-09-26T07:19:15.032Z,1.77
2022-09-26T07:21:41.872Z,1.80
2022-09-26T07:24:08.926Z,1.90
2022-09-26T07:26:35.732Z,1.97
2022-09-26T07:29:02.677Z,1.60
2022-09-26T07:31:29.596Z,2.20
2022-09-26T07:33:57.823Z,2.20
2022-09-26T07:36:24.675Z,1.97
2022-09-26T07:38:51.462Z,2.37
2022-09-26T07:41:18.283Z,1.50
2022-09-26T07:46:32.136Z,1.57
2022-09-26T07:49:00.418Z,1.13
2022-09-26T07:51:27.216Z,1.30
2022-09-26T07:53:54.063Z,1.30
2022-09-26T07:56:21.054Z,1.47
2022-09-26T07:58:47.917Z,1.20
2022-09-26T08:01:17.745Z,1.23
2022-09-26T08:03:46.403Z,1.20
2022-09-26T08:06:15.042Z,1.17
2022-09-26T08:08:41.870Z,1.67
2022-09-26T08:11:13.476Z,0.90
2022-09-26T08:13:40.294Z,1.30
2022-09-26T08:16:07.596Z,1.33
2022-09-26T08:18:34.458Z,1.70
2022-09-26T08:21:03.258Z,1.83
2022-09-26T08:23:31.559Z,1.43
2022-09-26T08:25:58.418Z,1.40
2022-09-26T08:28:26.607Z,1.70
2022-09-26T08:30:54.539Z,1.50
2022-09-26T08:33:21.401Z,1.10
2022-09-26T08:35:48.162Z,1.67
2022-09-26T08:38:14.907Z,1.33
2022-09-26T08:40:54.475Z,1.57
2022-09-26T08:43:39.592Z,2.23
2022-09-26T08:46:15.160Z,2.80
2022-09-26T08:48:57.404Z,1.40
2022-09-26T08:51:30.475Z,1.63
2022-09-26T08:54:04.749Z,1.40
2022-09-26T08:56:38.973Z,1.40
2022-09-26T08:59:12.320Z,1.50
2022-09-26T09:01:43.296Z,1.50
2022-09-26T09:04:14.893Z,1.50
2022-09-26T09:06:42.644Z,2.10
2022-09-26T09:09:14.609Z,1.57
2022-09-26T09:11:56.590Z,1.50
2022-09-26T09:14:38.379Z,1.60
2022-09-26T09:17:17.766Z,1.80
2022-09-26T09:19:53.083Z,1.57
2022-09-26T09:22:39.278Z,1.80
2022-09-26T09:25:15.760Z,2.00
2022-09-26T09:28:01.277Z,1.10
2022-09-26T09:30:40.341Z,1.80
2022-09-26T09:33:13.021Z,1.70
2022-09-26T09:35:43.496Z,1.43
2022-09-26T09:38:16.386Z,2.10
2022-09-26T09:40:49.943Z,2.10
2022-09-26T09:43:25.890Z,1.20
2022-09-26T09:45:55.732Z,1.20
2022-09-26T09:48:26.837Z,1.10
2022-09-26T09:51:13.172Z,1.67
2022-09-26T09:53:57.990Z,1.40
2022-09-26T09:56:32.780Z,1.40
2022-09-26T09:59:19.045Z,1.47
2022-09-26T10:01:50.316Z,1.80
2022-09-26T10:04:33.565Z,1.20
2022-09-26T10:07:00.908Z,1.10
2022-09-26T10:09:35.333Z,2.00
2022-09-26T10:12:12.503Z,1.33
2022-09-26T10:14:47.398Z,1.57
2022-09-26T10:17:21.817Z,1.77
2022-09-26T10:19:48.586Z,1.30
2022-09-26T10:22:19.306Z,1.20
2022-09-26T10:24:47.561Z,1.50
2022-09-26T10:27:22.941Z,1.30
2022-09-26T10:29:57.942Z,1.30
2022-09-26T10:32:24.933Z,1.57
2022-09-26T10:35:05.814Z,1.80
2022-09-26T10:37:35.970Z,1.60
2022-09-26T10:40:17.298Z,1.93
2022-09-26T10:42:44.244Z,1.40
2022-09-26T10:45:16.721Z,1.83
2022-09-26T10:47:45.309Z,2.10
2022-09-26T10:50:16.995Z,2.20
2022-09-26T10:52:48.405Z,1.73
2022-09-26T10:55:19.360Z,1.63
2022-09-26T10:57:50.338Z,1.40
2022-09-26T11:00:21.077Z,2.40
2022-09-26T11:02:50.281Z,1.70
2022-09-26T11:05:18.389Z,1.73
2022-09-26T11:07:46.685Z,1.90
2022-09-26T11:10:17.029Z,1.40
2022-09-26T11:12:57.258Z,1.43
2022-09-26T11:15:25.394Z,1.50
2022-09-26T11:17:53.399Z,2.43
2022-09-26T11:20:43.665Z,1.17
2022-09-26T11:23:21.632Z,1.43
2022-09-26T11:25:59.437Z,1.57
2022-09-26T11:28:30.593Z,1.23
2022-09-26T11:31:02.946Z,1.27
2022-09-26T11:33:29.773Z,1.10
2022-09-26T11:36:13.171Z,1.10
2022-09-26T11:38:46.356Z,1.10
2022-09-26T11:41:34.808Z,1.50
2022-09-26T11:44:17.348Z,1.33
2022-09-26T11:46:55.987Z,1.17
2022-09-26T11:49:47.682Z,1.23
2022-09-26T11:52:35.921Z,1.10
2022-09-26T11:55:16.847Z,0.80
2022-09-26T11:57:50.339Z,1.77
2022-09-26T12:00:21.290Z,1.60
2022-09-26T12:03:22.714Z,1.20
2022-09-26T12:05:54.285Z,1.20
2022-09-26T12:08:32.705Z,1.30
2022-09-26T12:11:08.700Z,0.93
2022-09-26T12:13:43.902Z,2.07
2022-09-26T12:16:16.170Z,1.27
2022-09-26T12:18:53.256Z,1.20
2022-09-26T12:21:30.733Z,1.40
2022-09-26T12:24:06.515Z,1.00
2022-09-26T12:26:40.802Z,1.10
2022-09-26T12:29:18.844Z,1.30
2022-09-26T12:31:59.741Z,1.27
2022-09-26T12:34:47.014Z,1.10
2022-09-26T12:37:30.719Z,1.20
2022-09-26T12:40:13.181Z,1.60
2022-09-26T12:43:03.092Z,1.03
2022-09-26T12:45:52.488Z,0.93
2022-09-26T12:48:29.244Z,1.50
2022-09-26T12:51:07.690Z,1.27
2022-09-26T12:53:54.403Z,1.17
2022-09-26T12:56:28.831Z,1.50
2022-09-26T12:59:12.378Z,1.10
2022-09-26T13:02:09.550Z,1.37
2022-09-26T13:05:02.968Z,1.13
2022-09-26T13:07:44.174Z,1.00
2022-09-26T13:10:27.248Z,0.80
2022-09-26T13:13:18.305Z,1.17
2022-09-26T13:15:59.349Z,0.80
2022-09-26T13:18:35.268Z,0.90
2022-09-26T13:21:09.160Z,1.10
2022-09-26T13:23:40.514Z,1.13
2022-09-26T13:26:14.900Z,1.37
2022-09-26T13:29:12.915Z,1.13
2022-09-26T13:31:39.236Z,1.17
2022-09-26T13:34:14.643Z,1.13
2022-09-26T13:36:43.194Z,1.60
2022-09-26T13:39:16.796Z,1.33
2022-09-26T13:41:52.792Z,0.90
2022-09-26T13:44:30.039Z,0.90
2022-09-26T13:47:07.860Z,1.13
2022-09-26T13:49:49.108Z,1.30
2022-09-26T13:52:26.655Z,0.80
2022-09-26T13:55:01.450Z,1.00
2022-09-26T13:57:32.344Z,1.27
2022-09-26T13:59:59.476Z,1.30
2022-09-26T14:02:27.726Z,1.00
2022-09-26T14:05:28.938Z,0.87
2022-09-26T14:07:55.931Z,1.50
2022-09-26T14:10:36.990Z,0.83
2022-09-26T14:13:15.022Z,1.47
2022-09-26T14:16:27.194Z,1.43
2022-09-26T14:18:59.646Z,1.17
2022-09-26T14:21:38.690Z,1.67
2022-09-26T14:24:32.069Z,1.53
2022-09-26T14:27:28.556Z,1.10
2022-09-26T14:30:00.691Z,1.57
2022-09-26T14:32:29.087Z,1.20
2022-09-26T14:34:57.975Z,1.20
2022-09-26T14:37:31.850Z,1.43
2022-09-26T14:40:14.747Z,1.20
2022-09-26T14:42:50.754Z,1.17
2022-09-26T14:45:22.120Z,1.00
2022-09-26T14:48:00.150Z,1.00
2022-09-26T14:50:29.806Z,1.40
2022-09-26T14:53:01.762Z,1.40
2022-09-26T14:55:30.937Z,1.20
2022-09-26T14:58:17.094Z,1.40
2022-09-26T15:00:48.236Z,1.00
2022-09-26T15:03:18.353Z,1.43
2022-09-26T15:05:46.291Z,1.43
2022-09-26T15:08:22.802Z,1.27
2022-09-26T15:10:50.952Z,1.20
2022-09-26T15:13:29.725Z,0.90
2022-09-26T15:16:03.935Z,1.00
2022-09-26T15:18:35.334Z,1.23
2022-09-26T15:21:23.268Z,1.30
2022-09-26T15:23:52.379Z,1.30
2022-09-26T15:26:21.983Z,1.10
2022-09-26T15:28:52.118Z,0.87
2022-09-26T15:31:25.626Z,1.30
2022-09-26T15:33:57.169Z,1.20
2022-09-26T15:36:27.186Z,1.23
2022-09-26T15:38:54.041Z,1.23
2022-09-26T15:41:20.808Z,1.27
2022-09-26T15:43:47.656Z,1.37
2022-09-26T15:46:22.257Z,1.50
2022-09-26T15:48:49.032Z,0.97
2022-09-26T15:51:20.706Z,1.60
2022-09-26T15:53:51.666Z,1.10
2022-09-26T15:56:21.620Z,1.17
2022-09-26T15:58:53.379Z,1.10
2022-09-26T16:01:23.705Z,1.00
2022-09-26T16:03:55.743Z,1.03
2022-09-26T16:06:29.657Z,1.10
2022-09-26T16:09:00.716Z,1.10
2022-09-26T16:11:28.269Z,1.00
2022-09-26T16:13:55.373Z,0.93
2022-09-26T16:16:25.873Z,0.90
2022-09-26T16:18:54.775Z,1.50
2022-09-26T16:21:23.184Z,1.10
2022-09-26T16:23:51.564Z,1.23
2022-09-26T16:26:24.489Z,1.33
2022-09-26T16:28:51.228Z,1.00
2022-09-26T16:31:28.433Z,1.30
2022-09-26T16:33:57.381Z,1.30
2022-09-26T16:36:26.789Z,1.23
2022-09-26T16:38:59.431Z,1.87
2022-09-26T16:41:59.990Z,1.47
2022-09-26T16:44:28.979Z,1.20
2022-09-26T16:47:00.905Z,1.40
2022-09-26T16:49:44.413Z,1.43
2022-09-26T16:52:23.704Z,1.40
2022-09-26T16:54:51.233Z,1.60
2022-09-26T16:57:20.830Z,1.10
2022-09-26T16:59:47.702Z,1.50
2022-09-26T17:02:15.891Z,1.53
2022-09-26T17:04:43.471Z,1.40
2022-09-26T17:07:13.096Z,1.50
2022-09-26T17:09:40.436Z,1.40
2022-09-26T17:12:13.543Z,1.70
2022-09-26T17:14:42.041Z,1.70
2022-09-26T17:17:16.081Z,1.57
2022-09-26T17:19:45.513Z,1.30
2022-09-26T17:22:16.500Z,1.83
2022-09-26T17:24:43.835Z,1.40
2022-09-26T17:27:15.183Z,1.10
2022-09-26T17:29:44.289Z,1.50
2022-09-26T17:32:14.714Z,1.20
2022-09-26T17:34:43.019Z,1.40
2022-09-26T17:37:11.348Z,0.90
2022-09-26T17:39:38.149Z,1.10
2022-09-26T17:42:05.052Z,1.47
2022-09-26T17:44:31.798Z,0.90
2022-09-26T17:46:58.914Z,1.30
2022-09-26T17:49:27.681Z,1.23
2022-09-26T17:51:57.261Z,1.03
2022-09-26T17:54:29.491Z,1.30
2022-09-26T17:56:56.822Z,0.90
2022-09-26T17:59:25.254Z,1.20
2022-09-26T18:01:54.682Z,1.70
2022-09-26T18:04:23.771Z,1.40
2022-09-26T18:06:50.705Z,1.50
2022-09-26T18:09:20.105Z,1.70
2022-09-26T18:11:54.381Z,1.50
2022-09-26T18:14:21.510Z,1.37
2022-09-26T18:16:48.345Z,1.57
2022-09-26T18:19:15.152Z,1.70
2022-09-26T18:21:42.118Z,1.67
2022-09-26T18:24:19.275Z,1.20
2022-09-26T18:26:50.256Z,1.70
2022-09-26T18:29:25.581Z,1.70
2022-09-26T18:31:52.844Z,1.90
2022-09-26T18:34:19.730Z,1.67
2022-09-26T18:36:47.223Z,1.87
2022-09-26T18:39:14.233Z,1.53
2022-09-26T18:41:41.154Z,2.30
2022-09-26T18:44:14.663Z,1.80
2022-09-26T18:46:41.646Z,1.60
2022-09-26T18:49:12.456Z,1.50
2022-09-26T18:51:39.403Z,1.50
2022-09-26T18:54:11.537Z,1.77
2022-09-26T18:56:38.629Z,1.30
2022-09-26T18:59:05.471Z,1.30
2022-09-26T19:01:35.904Z,1.80
2022-09-26T19:04:06.014Z,2.27
2022-09-26T19:06:36.432Z,2.13
2022-09-26T19:09:05.596Z,1.53
2022-09-26T19:11:33.240Z,1.83
2022-09-26T19:14:06.498Z,2.30
2022-09-26T19:16:34.690Z,2.03
2022-09-26T19:19:01.526Z,2.20
2022-09-26T19:21:32.757Z,1.57
2022-09-26T19:24:01.423Z,1.77
2022-09-26T19:26:32.245Z,2.17
2022-09-26T19:28:59.518Z,2.00
2022-09-26T19:31:27.104Z,1.87
2022-09-26T19:33:56.481Z,2.03
2022-09-26T19:36:25.030Z,1.87
2022-09-26T19:38:51.854Z,1.53
2022-09-26T19:41:18.668Z,1.90
2022-09-26T19:43:45.680Z,1.50
2022-09-26T19:46:17.083Z,2.30
2022-09-26T19:48:44.025Z,2.70
2022-09-26T19:51:15.805Z,2.13
2022-09-26T19:53:42.729Z,2.47
2022-09-26T19:56:09.933Z,1.60
2022-09-26T19:58:36.882Z,2.03
2022-09-26T20:01:14.798Z,2.60
2022-09-26T20:03:41.786Z,2.13
2022-09-26T20:06:14.368Z,2.10
2022-09-26T20:08:42.781Z,2.00
2022-09-26T20:11:09.585Z,2.03
2022-09-26T20:13:36.738Z,2.10
2022-09-26T20:16:03.560Z,1.47
2022-09-26T20:18:30.366Z,1.73
2022-09-26T20:20:58.052Z,1.90
2022-09-26T20:23:27.192Z,1.53
2022-09-26T20:25:55.218Z,1.70
2022-09-26T20:28:22.286Z,1.80
2022-09-26T20:30:49.180Z,2.37
2022-09-26T20:33:16.021Z,2.00
2022-09-26T20:35:45.956Z,1.80
2022-09-26T20:38:18.998Z,1.60
2022-09-26T20:40:47.305Z,1.70
2022-09-26T20:43:21.114Z,1.60
2022-09-26T20:45:48.154Z,2.00
2022-09-26T20:48:20.216Z,1.80
2022-09-26T20:50:47.626Z,1.90
2022-09-26T20:53:17.352Z,1.33
2022-09-26T20:55:44.519Z,1.90
2022-09-26T20:58:12.842Z,1.40
2022-09-26T21:00:40.932Z,1.43
2022-09-26T21:03:09.784Z,1.00
2022-09-26T21:05:36.967Z,1.97
2022-09-26T21:08:09.312Z,1.63
2022-09-26T21:10:36.067Z,1.70
2022-09-26T21:13:02.820Z,1.37
2022-09-26T21:15:32.842Z,1.53
2022-09-26T21:18:01.080Z,1.93
2022-09-26T21:20:29.937Z,1.30
2022-09-26T21:22:57.903Z,1.30
2022-09-26T21:25:27.723Z,1.30
2022-09-26T21:27:57.714Z,1.40
2022-09-26T21:30:24.418Z,1.20
2022-09-26T21:32:56.183Z,1.17
2022-09-26T21:35:28.756Z,1.43
2022-09-26T21:37:57.494Z,1.27
2022-09-26T21:40:28.005Z,1.30
2022-09-26T21:42:59.187Z,1.90
2022-09-26T21:45:27.472Z,1.57
2022-09-26T21:47:57.027Z,0.90
2022-09-26T21:50:25.667Z,1.40
2022-09-26T21:52:56.109Z,1.30
2022-09-26T21:55:27.957Z,1.00
2022-09-26T21:57:58.522Z,1.63
2022-09-26T22:00:25.240Z,1.57
2022-09-26T22:02:52.048Z,1.60
2022-09-26T22:05:20.257Z,1.20
2022-09-26T22:07:47.021Z,2.00
2022-09-26T22:10:13.749Z,1.30
2022-09-26T22:12:40.485Z,1.20
2022-09-26T22:15:08.621Z,1.37
2022-09-26T22:17:35.419Z,1.83
2022-09-26T22:20:02.561Z,1.10
2022-09-26T22:22:30.674Z,1.30
2022-09-26T22:24:57.410Z,1.50
2022-09-26T22:27:24.145Z,1.00
2022-09-26T22:29:50.891Z,1.73
2022-09-26T22:32:17.670Z,2.33
2022-09-26T22:34:44.409Z,1.33
2022-09-26T22:37:11.338Z,1.40
2022-09-26T22:39:39.475Z,1.23
2022-09-26T22:42:06.262Z,1.37
2022-09-26T22:44:33.074Z,1.70
2022-09-26T22:46:59.896Z,1.33
2022-09-26T22:49:26.667Z,1.10
2022-09-26T22:51:53.461Z,1.60
2022-09-26T22:54:20.361Z,1.10
2022-09-26T22:56:48.473Z,1.50
2022-09-26T22:59:15.350Z,1.47
2022-09-26T23:01:42.137Z,1.30
2022-09-26T23:04:09.116Z,1.30
2022-09-26T23:06:35.867Z,1.10
2022-09-26T23:09:02.734Z,1.73
2022-09-26T23:11:29.752Z,1.00
2022-09-26T23:13:57.899Z,1.13
2022-09-26T23:16:25.117Z,1.07
2022-09-26T23:18:52.322Z,1.10
2022-09-26T23:21:20.785Z,1.30
2022-09-26T23:23:49.867Z,1.00
2022-09-26T23:26:18.296Z,0.80
2022-09-26T23:28:45.128Z,1.37
2022-09-26T23:31:13.452Z,1.10
2022-09-26T23:33:40.701Z,1.40
2022-09-26T23:36:08.640Z,1.07
2022-09-26T23:38:36.552Z,1.50
2022-09-26T23:41:03.475Z,1.70
2022-09-26T23:43:30.276Z,1.80
2022-09-26T23:45:57.334Z,1.60
2022-09-26T23:48:25.597Z,2.17
2022-09-26T23:50:52.397Z,2.13
2022-09-26T23:53:19.528Z,1.30
2022-09-26T23:55:46.423Z,2.13
2022-09-26T23:58:13.209Z,1.17
